createdAt,value
2022-12-23T00:04:40.801Z,43.15719063545151
2022-12-23T00:11:00.480Z,43.32107023411371
2022-12-23T00:17:23.322Z,43.37792642140468
2022-12-23T00:29:21.120Z,43.2876254180602
2022-12-23T00:35:40.708Z,45.97324414715719
2022-12-23T00:41:59.883Z,44.531772575250834
2022-12-23T00:48:56.812Z,48.53846153846154
2022-12-23T01:00:13.180Z,51.675585284280935
2022-12-23T01:06:33.106Z,55.40468227424749
2022-12-23T01:12:52.875Z,50.47826086956522
2022-12-23T01:20:34.565Z,48.508361204013376
2022-12-23T01:26:53.796Z,49.38795986622073
2022-12-23T01:33:14.217Z,47.50501672240803
2022-12-23T01:43:55.663Z,46.214046822742475
2022-12-23T01:56:23.747Z,45.68896321070234
2022-12-23T02:08:54.960Z,46.936454849498325
2022-12-23T02:26:21.403Z,46.735785953177256
2022-12-23T02:32:41.076Z,48.32775919732441
2022-12-23T02:42:59.728Z,47.40468227424749
2022-12-23T02:50:33.303Z,42.79933110367893
2022-12-23T02:56:56.319Z,41.391304347826086
2022-12-23T03:03:16.751Z,41.97324414715719
2022-12-23T03:09:36.910Z,41.525083612040135
2022-12-23T03:19:43.450Z,43.25752508361204
2022-12-23T03:26:03.387Z,43.98996655518395
2022-12-23T03:33:42.479Z,45.05016722408027
2022-12-23T03:40:01.664Z,42.919732441471574
2022-12-23T03:46:23.287Z,42.18394648829432
2022-12-23T03:58:55.619Z,34.82608695652174
2022-12-23T04:05:15.566Z,37.438127090301
2022-12-23T04:14:17.726Z,38.591973244147155
2022-12-23T04:20:37.334Z,38.357859531772576
2022-12-23T04:26:56.395Z,39.4314381270903
2022-12-23T04:33:39.934Z,44.79598662207358
2022-12-23T04:40:00.226Z,44.58862876254181
2022-12-23T04:52:18.512Z,44.130434782608695
2022-12-23T04:58:37.797Z,43.17056856187291
2022-12-23T05:04:58.618Z,42.16053511705686
2022-12-23T05:14:14.452Z,43.16722408026756
2022-12-23T05:22:08.039Z,46.10702341137124
2022-12-23T05:28:28.202Z,47.83946488294314
2022-12-23T05:36:16.326Z,50.45484949832776
2022-12-23T05:42:37.963Z,50.72909698996656
2022-12-23T05:56:29.175Z,53.36789297658863
2022-12-23T06:02:53.828Z,51.22742474916388
2022-12-23T06:09:19.936Z,52.91304347826087
2022-12-23T06:20:01.868Z,52.51170568561873
2022-12-23T06:27:28.825Z,51.34448160535117
2022-12-23T06:33:48.538Z,54.75585284280937
2022-12-23T06:41:57.259Z,59.130434782608695
2022-12-23T06:50:26.845Z,59.10702341137124
2022-12-23T06:56:46.217Z,56.65217391304348
2022-12-23T07:05:45.163Z,55.30769230769231
2022-12-23T07:13:32.135Z,52.31438127090301
2022-12-23T07:21:31.580Z,50.94314381270903
2022-12-23T07:27:51.301Z,52.24414715719063
2022-12-23T07:34:55.887Z,54.24414715719063
2022-12-23T07:41:16.078Z,52.65886287625418
2022-12-23T07:47:35.813Z,50.919732441471574
2022-12-23T07:53:59.557Z,51.046822742474916
2022-12-23T08:07:30.711Z,48.69565217391305
2022-12-23T08:13:54.893Z,47.94648829431438
2022-12-23T08:20:33.567Z,46.97658862876254
2022-12-23T08:26:56.667Z,44.608695652173914
2022-12-23T08:39:42.431Z,50.06688963210702
2022-12-23T08:46:05.166Z,48.735785953177256
2022-12-23T08:53:47.091Z,47.618729096989966
2022-12-23T09:01:53.455Z,48.20401337792642
2022-12-23T09:08:15.824Z,47.73913043478261
2022-12-23T09:15:51.184Z,44.48160535117057
2022-12-23T09:31:36.798Z,40.525083612040135
2022-12-23T09:38:00.726Z,39.87290969899666
2022-12-23T09:48:39.318Z,41.364548494983275
2022-12-23T09:56:23.262Z,40.52842809364549
2022-12-23T10:04:04.019Z,38.54849498327759
2022-12-23T10:10:29.636Z,40.625418060200666
2022-12-23T10:16:54.019Z,41.52842809364549
2022-12-23T10:23:18.519Z,41.11371237458194
2022-12-23T10:29:39.782Z,39.36789297658863
2022-12-23T10:41:38.513Z,39.80602006688963
2022-12-23T10:48:00.208Z,41.414715719063544
2022-12-23T11:01:27.596Z,39.779264214046826
2022-12-23T11:07:49.837Z,39.58862876254181
2022-12-23T11:18:56.858Z,42.75585284280937
2022-12-23T11:27:36.577Z,41.274247491638796
2022-12-23T11:33:59.429Z,43.19063545150502
2022-12-23T11:46:57.108Z,42.67224080267559
2022-12-23T12:01:16.139Z,38.74247491638796
2022-12-23T12:07:47.056Z,40.7056856187291
2022-12-23T12:26:16.322Z,39.45484949832776
2022-12-23T12:32:40.144Z,40.11371237458194
2022-12-23T12:44:59.185Z,38.759197324414714
2022-12-23T12:51:23.880Z,37.876254180602004
2022-12-23T12:57:46.551Z,38.163879598662206
2022-12-23T13:09:55.668Z,35.94648829431438
2022-12-23T13:16:20.087Z,34.40468227424749
2022-12-23T13:22:44.284Z,34.25418060200669
2022-12-23T13:29:35.006Z,33.103678929765884
2022-12-23T13:38:33.996Z,31.387959866220736
2022-12-23T13:44:56.783Z,30.47826086956522
2022-12-23T13:51:19.498Z,32.05351170568562
2022-12-23T13:57:46.216Z,32.668896321070235
2022-12-23T14:09:48.827Z,30.88294314381271
2022-12-23T14:20:59.460Z,32.608695652173914
2022-12-23T14:27:29.315Z,31.096989966555185
2022-12-23T14:39:59.007Z,31.434782608695652
2022-12-23T14:49:38.501Z,31.795986622073578
2022-12-23T15:10:54.017Z,32.324414715719065
2022-12-23T15:19:50.720Z,32.33444816053512
2022-12-23T15:26:11.933Z,32.374581939799334
2022-12-23T15:32:32.497Z,32.46153846153846
2022-12-23T15:38:52.549Z,31.357859531772576
2022-12-23T15:45:20.260Z,32.92642140468227
2022-12-23T15:52:09.469Z,35.709030100334445
2022-12-23T15:58:32.813Z,32.37123745819398
2022-12-23T16:04:54.639Z,31.903010033444815
2022-12-23T16:11:20.300Z,32.60200668896321
2022-12-23T16:20:40.119Z,34.03678929765886
2022-12-23T16:27:00.680Z,32.936454849498325
2022-12-23T16:33:22.618Z,31.86622073578595
2022-12-23T16:39:44.280Z,30.755852842809364
2022-12-23T16:56:09.135Z,33.08361204013378
2022-12-23T17:06:47.606Z,32.441471571906355
2022-12-23T17:13:07.473Z,33.5685618729097
2022-12-23T17:19:29.424Z,31.899665551839465
2022-12-23T17:25:48.813Z,34.247491638795985
2022-12-23T17:32:10.567Z,36.67892976588629
2022-12-23T17:38:30.092Z,33.719063545150505
2022-12-23T17:44:51.081Z,32.37123745819398
2022-12-23T18:06:05.592Z,35.03344481605351
2022-12-23T18:24:19.165Z,29.80267558528428
2022-12-23T18:30:39.743Z,31.862876254180602
2022-12-23T18:37:57.672Z,26.434782608695652
2022-12-23T18:47:06.725Z,25.91638795986622
2022-12-23T18:53:28.432Z,24.387959866220736
2022-12-23T18:59:49.833Z,24.217391304347824
2022-12-23T19:11:10.876Z,33.46488294314381
2022-12-23T19:17:31.679Z,27.505016722408026
2022-12-23T19:23:51.614Z,31.434782608695652
2022-12-23T19:43:07.607Z,26.859531772575252
2022-12-23T19:49:27.626Z,29.401337792642142
2022-12-23T19:55:47.868Z,29.274247491638796
2022-12-23T20:04:42.184Z,33.137123745819395
2022-12-23T20:14:45.333Z,28.615384615384617
2022-12-23T20:21:14.872Z,23.668896321070235
2022-12-23T20:27:41.127Z,26.123745819397993
2022-12-23T20:39:48.022Z,21.183946488294314
2022-12-23T20:46:11.681Z,16.441471571906355
2022-12-23T20:52:32.215Z,16.06020066889632
2022-12-23T20:58:52.720Z,16.31103678929766
2022-12-23T21:12:32.423Z,14.79598662207358
2022-12-23T21:18:54.864Z,16.414715719063544
2022-12-23T21:25:30.355Z,15.959866220735785
2022-12-23T21:31:59.262Z,12.896321070234114
2022-12-23T21:42:35.548Z,13.448160535117056
2022-12-23T21:49:10.716Z,13.324414715719064
2022-12-23T21:57:52.385Z,14.765886287625419
2022-12-23T22:04:34.939Z,13.434782608695652
2022-12-23T22:11:13.005Z,13.408026755852843
2022-12-23T22:18:39.984Z,13.31438127090301
2022-12-23T22:25:48.784Z,14.431438127090301
2022-12-23T22:32:15.952Z,14.193979933110368
2022-12-23T22:38:37.413Z,14.578595317725753
2022-12-23T22:44:57.952Z,13.397993311036789
2022-12-23T22:51:18.123Z,13.321070234113712
2022-12-23T22:57:37.568Z,14.585284280936454
2022-12-23T23:03:57.610Z,13.57190635451505
2022-12-23T23:14:18.317Z,13.043478260869565
2022-12-23T23:27:40.499Z,11.826086956521738
2022-12-23T23:34:00.603Z,12.020066889632107
2022-12-23T23:55:46.918Z,11.882943143812708
